createdAt,value
2019-06-10T00:01:46.000Z,100337
2019-06-10T00:03:47.000Z,100343
2019-06-10T00:05:45.000Z,100342
2019-06-10T00:07:30.000Z,100337
2019-06-10T00:08:46.000Z,100344
2019-06-10T00:10:46.000Z,100339
2019-06-10T00:12:46.000Z,100336
2019-06-10T00:14:46.000Z,100337
2019-06-10T00:16:46.000Z,100333
2019-06-10T00:18:30.000Z,100336
2019-06-10T00:19:46.000Z,100328
2019-06-10T00:21:46.000Z,100331
2019-06-10T00:23:47.000Z,100323
2019-06-10T00:25:46.000Z,100319
2019-06-10T00:27:46.000Z,100308
2019-06-10T00:29:46.000Z,100309
2019-06-10T00:31:46.000Z,100308
2019-06-10T00:33:31.000Z,100303
2019-06-10T00:35:46.000Z,100306
2019-06-10T00:37:46.000Z,100303
2019-06-10T00:39:30.000Z,100297
2019-06-10T00:40:47.000Z,100296
2019-06-10T00:42:46.000Z,100298
2019-06-10T00:44:46.000Z,100299
2019-06-10T00:46:46.000Z,100299
2019-06-10T00:48:47.000Z,100301
2019-06-10T00:50:45.000Z,100297
2019-06-10T00:52:45.000Z,100289
2019-06-10T00:54:29.000Z,100286
2019-06-10T00:55:46.000Z,100279
2019-06-10T00:57:46.000Z,100273
2019-06-10T00:59:45.000Z,100274
2019-06-10T01:01:46.000Z,100278
2019-06-10T01:03:46.000Z,100276
2019-06-10T01:05:45.000Z,100270
2019-06-10T01:07:30.000Z,100270
2019-06-10T01:09:45.000Z,100267
2019-06-10T01:11:30.000Z,100265
2019-06-10T01:13:45.000Z,100258
2019-06-10T01:15:45.000Z,100262
2019-06-10T01:17:45.000Z,100267
2019-06-10T01:19:45.000Z,100264
2019-06-10T01:21:46.000Z,100260
2019-06-10T01:23:45.000Z,100260
2019-06-10T01:25:45.000Z,100262
2019-06-10T01:27:46.000Z,100258
2019-06-10T01:29:46.000Z,100254
2019-06-10T01:31:29.000Z,100251
2019-06-10T01:32:45.000Z,100252
2019-06-10T01:34:45.000Z,100256
2019-06-10T01:36:46.000Z,100254
2019-06-10T01:38:46.000Z,100248
2019-06-10T01:40:46.000Z,100250
2019-06-10T01:42:30.000Z,100245
2019-06-10T01:44:45.000Z,100236
2019-06-10T01:46:46.000Z,100235
2019-06-10T01:48:43.000Z,100232
2019-06-10T01:50:29.000Z,100232
2019-06-10T01:51:46.000Z,100232
2019-06-10T01:53:45.000Z,100230
2019-06-10T01:55:45.000Z,100230
2019-06-10T01:57:45.000Z,100228
2019-06-10T01:59:45.000Z,100229
2019-06-10T02:01:45.000Z,100226
2019-06-10T02:03:45.000Z,100216
2019-06-10T02:05:45.000Z,100215
2019-06-10T02:07:46.000Z,100210
2019-06-10T02:09:45.000Z,100206
2019-06-10T02:11:46.000Z,100203
2019-06-10T02:13:32.000Z,100194
2019-06-10T02:15:45.000Z,100198
2019-06-10T02:17:30.000Z,100187
2019-06-10T02:19:45.000Z,100185
2019-06-10T02:21:45.000Z,100183
2019-06-10T02:23:46.000Z,100177
2019-06-10T02:25:45.000Z,100172
2019-06-10T02:27:45.000Z,100158
2019-06-10T02:29:45.000Z,100161
2019-06-10T02:31:36.000Z,100153
2019-06-10T02:33:35.000Z,100155
2019-06-10T02:35:29.000Z,100155
2019-06-10T02:36:35.000Z,100149
2019-06-10T02:38:29.000Z,100145
2019-06-10T02:39:37.000Z,100149
2019-06-10T02:41:29.000Z,100146
2019-06-10T02:42:34.000Z,100145
2019-06-10T02:43:35.000Z,100148
2019-06-10T02:44:36.000Z,100151
2019-06-10T02:46:29.000Z,100154
2019-06-10T02:47:35.000Z,100156
2019-06-10T02:49:29.000Z,100153
2019-06-10T02:50:35.000Z,100142
2019-06-10T02:52:29.000Z,100136
2019-06-10T02:53:34.000Z,100138
2019-06-10T02:55:29.000Z,100143
2019-06-10T02:57:39.000Z,100142
2019-06-10T02:59:29.000Z,100137
2019-06-10T03:00:39.000Z,100142
2019-06-10T03:02:29.000Z,100136
2019-06-10T03:03:42.000Z,100141
2019-06-10T03:05:29.000Z,100144
2019-06-10T03:06:35.000Z,100144
2019-06-10T03:08:29.000Z,100153
2019-06-10T03:09:34.000Z,100153
2019-06-10T03:10:35.000Z,100149
2019-06-10T03:12:59.000Z,100148
2019-06-10T03:14:29.000Z,100142
2019-06-10T03:15:46.000Z,100144
2019-06-10T03:17:47.000Z,100145
2019-06-10T03:19:44.000Z,100137
2019-06-10T03:21:29.000Z,100137
2019-06-10T03:22:59.000Z,100139
2019-06-10T03:24:29.000Z,100150
2019-06-10T03:25:59.000Z,100150
2019-06-10T03:27:47.000Z,100142
2019-06-10T03:29:59.000Z,100142
2019-06-10T03:31:40.000Z,100144
2019-06-10T03:33:29.000Z,100145
2019-06-10T03:34:40.000Z,100141
2019-06-10T03:35:59.000Z,100140
2019-06-10T03:37:59.000Z,100140
2019-06-10T03:39:29.000Z,100138
2019-06-10T03:40:59.000Z,100140
2019-06-10T03:42:47.000Z,100141
2019-06-10T03:44:59.000Z,100141
2019-06-10T03:46:59.000Z,100136
2019-06-10T03:48:29.000Z,100137
2019-06-10T03:49:46.000Z,100138
2019-06-10T03:50:47.000Z,100135
2019-06-10T03:51:59.000Z,100135
2019-06-10T03:53:59.000Z,100133
2019-06-10T03:55:59.000Z,100129
2019-06-10T03:57:59.000Z,100128
2019-06-10T03:59:29.000Z,100123
2019-06-10T04:00:32.000Z,100131
2019-06-10T04:01:59.000Z,100121
2019-06-10T04:04:00.000Z,100121
2019-06-10T04:06:00.000Z,100119
2019-06-10T04:07:30.000Z,100114
2019-06-10T04:08:33.000Z,100111
2019-06-10T04:10:00.000Z,100112
2019-06-10T04:11:30.000Z,100095
2019-06-10T04:12:47.000Z,100104
2019-06-10T04:14:30.000Z,100106
2019-06-10T04:15:32.000Z,100109
2019-06-10T04:18:00.000Z,100114
2019-06-10T04:19:30.000Z,100113
2019-06-10T04:21:00.000Z,100112
2019-06-10T04:23:00.000Z,100120
2019-06-10T04:24:30.000Z,100112
2019-06-10T04:25:47.000Z,100115
2019-06-10T04:28:00.000Z,100116
2019-06-10T04:30:00.000Z,100108
2019-06-10T04:32:00.000Z,100109
2019-06-10T04:33:30.000Z,100108
2019-06-10T04:34:33.000Z,100105
2019-06-10T04:37:00.000Z,100097
2019-06-10T04:38:30.000Z,100095
2019-06-10T04:40:00.000Z,100096
2019-06-10T04:41:30.000Z,100095
2019-06-10T04:43:32.000Z,100092
2019-06-10T04:45:00.000Z,100096
2019-06-10T04:46:30.000Z,100088
2019-06-10T04:48:00.000Z,100093
2019-06-10T04:49:30.000Z,100087
2019-06-10T04:50:41.000Z,100092
2019-06-10T04:52:00.000Z,100086
2019-06-10T04:53:30.000Z,100088
2019-06-10T04:55:00.000Z,100086
2019-06-10T04:56:30.000Z,100085
2019-06-10T04:57:32.000Z,100081
2019-06-10T04:59:31.000Z,100083
2019-06-10T05:00:33.000Z,100079
2019-06-10T05:02:00.000Z,100075
2019-06-10T05:03:30.000Z,100082
2019-06-10T05:05:32.000Z,100085
2019-06-10T05:07:36.000Z,100087
2019-06-10T05:08:59.000Z,100087
2019-06-10T05:10:59.000Z,100087
2019-06-10T05:12:47.000Z,100085
2019-06-10T05:13:59.000Z,100088
2019-06-10T05:15:29.000Z,100083
2019-06-10T05:16:32.000Z,100090
2019-06-10T05:17:33.000Z,100087
2019-06-10T05:19:29.000Z,100083
2019-06-10T05:20:44.000Z,100089
2019-06-10T05:22:29.000Z,100090
2019-06-10T05:23:32.000Z,100092
2019-06-10T05:25:47.000Z,100096
2019-06-10T05:27:32.000Z,100098
2019-06-10T05:29:31.000Z,100088
2019-06-10T05:30:33.000Z,100091
2019-06-10T05:31:34.000Z,100088
2019-06-10T05:33:29.000Z,100083
2019-06-10T05:34:34.000Z,100085
2019-06-10T05:36:33.000Z,100088
2019-06-10T05:38:29.000Z,100088
2019-06-10T05:39:29.000Z,100087
2019-06-10T05:40:33.000Z,100088
2019-06-10T05:42:35.000Z,100079
2019-06-10T05:44:59.000Z,100084
2019-06-10T05:46:34.000Z,100085
2019-06-10T05:48:30.000Z,100084
2019-06-10T05:49:33.000Z,100080
2019-06-10T05:51:29.000Z,100077
2019-06-10T05:52:33.000Z,100066
2019-06-10T05:53:33.000Z,100075
2019-06-10T05:54:33.000Z,100071
2019-06-10T05:55:33.000Z,100069
2019-06-10T05:57:29.000Z,100061
2019-06-10T05:59:31.000Z,100070
2019-06-10T06:00:33.000Z,100075
2019-06-10T06:01:59.000Z,100074
2019-06-10T06:03:59.000Z,100074
2019-06-10T06:05:29.000Z,100069
2019-06-10T06:06:33.000Z,100057
2019-06-10T06:08:29.000Z,100061
2019-06-10T06:09:34.000Z,100065
2019-06-10T06:11:33.000Z,100067
2019-06-10T06:12:33.000Z,100070
2019-06-10T06:13:33.000Z,100072
2019-06-10T06:14:59.000Z,100072
2019-06-10T06:16:29.000Z,100070
2019-06-10T06:17:32.000Z,100070
2019-06-10T06:18:59.000Z,100075
2019-06-10T06:20:29.000Z,100073
2019-06-10T06:21:38.000Z,100074
2019-06-10T06:23:29.000Z,100073
2019-06-10T06:24:33.000Z,100075
2019-06-10T06:25:35.000Z,100072
2019-06-10T06:27:29.000Z,100078
2019-06-10T06:28:33.000Z,100079
2019-06-10T06:30:44.000Z,100081
2019-06-10T06:32:32.000Z,100074
2019-06-10T06:33:33.000Z,100069
2019-06-10T06:35:29.000Z,100072
2019-06-10T06:36:32.000Z,100067
2019-06-10T06:37:35.000Z,100069
2019-06-10T06:39:29.000Z,100067
2019-06-10T06:40:33.000Z,100069
2019-06-10T06:42:32.000Z,100070
2019-06-10T06:43:34.000Z,100064
2019-06-10T06:45:59.000Z,100072
2019-06-10T06:47:29.000Z,100071
2019-06-10T06:48:59.000Z,100079
2019-06-10T06:50:29.000Z,100076
2019-06-10T06:51:54.000Z,100079
2019-06-10T06:53:41.000Z,100075
2019-06-10T06:55:29.000Z,100069
2019-06-10T06:56:35.000Z,100069
2019-06-10T06:58:29.000Z,100073
2019-06-10T06:59:32.000Z,100070
2019-06-10T07:00:44.000Z,100070
2019-06-10T07:02:59.000Z,100066
2019-06-10T07:04:33.000Z,100072
2019-06-10T07:06:29.000Z,100067
2019-06-10T07:07:29.000Z,100073
2019-06-10T07:08:32.000Z,100068
2019-06-10T07:10:29.000Z,100059
2019-06-10T07:11:32.000Z,100059
2019-06-10T07:13:29.000Z,100064
2019-06-10T07:14:34.000Z,100066
2019-06-10T07:16:29.000Z,100062
2019-06-10T07:17:31.000Z,100067
2019-06-10T07:18:33.000Z,100067
2019-06-10T07:20:32.000Z,100069
2019-06-10T07:21:45.000Z,100067
2019-06-10T07:23:45.000Z,100067
2019-06-10T07:25:34.000Z,100060
2019-06-10T07:27:45.000Z,100061
2019-06-10T07:29:44.000Z,100054
2019-06-10T07:31:33.000Z,100059
2019-06-10T07:32:45.000Z,100053
2019-06-10T07:33:45.000Z,100043
2019-06-10T07:35:30.000Z,100052
2019-06-10T07:36:32.000Z,100047
2019-06-10T07:38:30.000Z,100052
2019-06-10T07:39:45.000Z,100049
2019-06-10T07:41:32.000Z,100051
2019-06-10T07:42:45.000Z,100051
2019-06-10T07:44:44.000Z,100051
2019-06-10T07:46:45.000Z,100048
2019-06-10T07:48:45.000Z,100047
2019-06-10T07:50:45.000Z,100052
2019-06-10T07:52:45.000Z,100053
2019-06-10T07:54:45.000Z,100063
2019-06-10T07:56:36.000Z,100063
2019-06-10T07:57:45.000Z,100056
2019-06-10T07:59:30.000Z,100054
2019-06-10T08:00:45.000Z,100052
2019-06-10T08:02:30.000Z,100045
2019-06-10T08:03:45.000Z,100048
2019-06-10T08:05:30.000Z,100039
2019-06-10T08:06:45.000Z,100040
2019-06-10T08:08:30.000Z,100042
2019-06-10T08:09:45.000Z,100034
2019-06-10T08:11:45.000Z,100021
2019-06-10T08:13:30.000Z,100021
2019-06-10T08:14:47.000Z,100018
2019-06-10T08:16:30.000Z,100018
2019-06-10T08:17:45.000Z,100019
2019-06-10T08:18:45.000Z,100013
2019-06-10T08:20:47.000Z,100019
2019-06-10T08:22:35.000Z,100015
2019-06-10T08:24:47.000Z,100019
2019-06-10T08:26:30.000Z,100022
2019-06-10T08:27:45.000Z,100015
2019-06-10T08:29:29.000Z,100011
2019-06-10T08:30:47.000Z,100015
2019-06-10T08:32:44.000Z,100013
2019-06-10T08:34:29.000Z,100018
2019-06-10T08:35:41.000Z,100013
2019-06-10T08:36:44.000Z,100010
2019-06-10T08:38:29.000Z,100013
2019-06-10T08:39:44.000Z,100006
2019-06-10T08:41:29.000Z,100006
2019-06-10T08:42:46.000Z,100006
2019-06-10T08:44:32.000Z,100004
2019-06-10T08:45:44.000Z,100002
2019-06-10T08:46:44.000Z,99995
2019-06-10T08:48:44.000Z,99997
2019-06-10T08:50:44.000Z,99992
2019-06-10T08:52:29.000Z,99987
2019-06-10T08:53:32.000Z,99990
2019-06-10T08:55:32.000Z,99992
2019-06-10T08:57:44.000Z,99996
2019-06-10T08:58:44.000Z,99988
2019-06-10T09:00:44.000Z,99982
2019-06-10T09:02:29.000Z,99979
2019-06-10T09:03:47.000Z,99982
2019-06-10T09:05:31.000Z,99985
2019-06-10T09:06:44.000Z,99987
2019-06-10T09:07:47.000Z,99984
2019-06-10T09:08:47.000Z,99989
2019-06-10T09:10:44.000Z,99984
2019-06-10T09:11:47.000Z,99985
2019-06-10T09:13:30.000Z,99980
2019-06-10T09:14:47.000Z,99980
2019-06-10T09:16:29.000Z,99976
2019-06-10T09:17:48.000Z,99978
2019-06-10T09:19:32.000Z,99982
2019-06-10T09:20:44.000Z,99978
2019-06-10T09:21:44.000Z,99983
2019-06-10T09:23:44.000Z,99982
2019-06-10T09:25:29.000Z,99981
2019-06-10T09:26:44.000Z,99989
2019-06-10T09:28:29.000Z,99984
2019-06-10T09:29:47.000Z,99984
2019-06-10T09:31:44.000Z,99980
2019-06-10T09:33:29.000Z,99982
2019-06-10T09:35:46.000Z,99983
2019-06-10T09:36:46.000Z,99980
2019-06-10T09:37:46.000Z,99979
2019-06-10T09:39:32.000Z,99983
2019-06-10T09:41:29.000Z,99973
2019-06-10T09:42:44.000Z,99976
2019-06-10T09:44:44.000Z,99982
2019-06-10T09:45:44.000Z,99976
2019-06-10T09:47:44.000Z,99977
2019-06-10T09:48:44.000Z,99969
2019-06-10T09:50:44.000Z,99975
2019-06-10T09:52:29.000Z,99969
2019-06-10T09:53:40.000Z,99974
2019-06-10T09:54:44.000Z,99972
2019-06-10T09:56:44.000Z,99965
2019-06-10T09:58:29.000Z,99963
2019-06-10T09:59:46.000Z,99954
2019-06-10T10:01:31.000Z,99953
2019-06-10T10:02:44.000Z,99955
2019-06-10T10:04:29.000Z,99953
2019-06-10T10:05:44.000Z,99954
2019-06-10T10:07:29.000Z,99958
2019-06-10T10:08:46.000Z,99951
2019-06-10T10:10:31.000Z,99950
2019-06-10T10:12:47.000Z,99946
2019-06-10T10:14:44.000Z,99949
2019-06-10T10:16:44.000Z,99950
2019-06-10T10:17:44.000Z,99940
2019-06-10T10:19:44.000Z,99947
2019-06-10T10:20:44.000Z,99946
2019-06-10T10:22:44.000Z,99946
2019-06-10T10:24:44.000Z,99942
2019-06-10T10:26:44.000Z,99942
2019-06-10T10:28:44.000Z,99936
2019-06-10T10:30:29.000Z,99930
2019-06-10T10:32:44.000Z,99926
2019-06-10T10:34:44.000Z,99915
2019-06-10T10:36:44.000Z,99919
2019-06-10T10:38:44.000Z,99913
2019-06-10T10:40:30.000Z,99915
2019-06-10T10:41:47.000Z,99920
2019-06-10T10:43:34.000Z,99925
2019-06-10T10:44:45.000Z,99923
2019-06-10T10:45:45.000Z,99919
2019-06-10T10:47:33.000Z,99917
2019-06-10T10:49:00.000Z,99920
2019-06-10T10:50:45.000Z,99921
2019-06-10T10:52:48.000Z,99916
2019-06-10T10:54:30.000Z,99912
2019-06-10T10:56:00.000Z,99913
2019-06-10T10:58:00.000Z,99917
2019-06-10T10:59:30.000Z,99911
2019-06-10T11:00:37.000Z,99910
2019-06-10T11:02:30.000Z,99903
2019-06-10T11:03:45.000Z,99903
2019-06-10T11:05:30.000Z,99907
2019-06-10T11:06:47.000Z,99906
2019-06-10T11:07:49.000Z,99907
2019-06-10T11:09:30.000Z,99905
2019-06-10T11:10:48.000Z,99908
2019-06-10T11:13:00.000Z,99914
2019-06-10T11:14:45.000Z,99903
2019-06-10T11:16:33.000Z,99898
2019-06-10T11:19:00.000Z,99888
2019-06-10T11:21:00.000Z,99882
2019-06-10T11:22:00.000Z,99881
2019-06-10T11:23:30.000Z,99876
2019-06-10T11:24:40.000Z,99868
2019-06-10T11:26:30.000Z,99864
2019-06-10T11:27:48.000Z,99865
2019-06-10T11:29:30.000Z,99858
2019-06-10T11:30:32.000Z,99859
2019-06-10T11:31:45.000Z,99861
2019-06-10T11:33:30.000Z,99859
2019-06-10T11:34:45.000Z,99861
2019-06-10T11:36:45.000Z,99854
2019-06-10T11:38:32.000Z,99849
2019-06-10T11:39:45.000Z,99847
2019-06-10T11:41:30.000Z,99851
2019-06-10T11:42:45.000Z,99850
2019-06-10T11:44:45.000Z,99850
2019-06-10T11:46:30.000Z,99849
2019-06-10T11:47:30.000Z,99854
2019-06-10T11:48:32.000Z,99846
2019-06-10T11:50:00.000Z,99848
2019-06-10T11:52:00.000Z,99856
2019-06-10T11:54:00.000Z,99849
2019-06-10T11:56:00.000Z,99845
2019-06-10T11:57:30.000Z,99851
2019-06-10T11:59:00.000Z,99845
2019-06-10T12:00:30.000Z,99846
2019-06-10T12:01:45.000Z,99853
2019-06-10T12:03:00.000Z,99848
2019-06-10T12:04:45.000Z,99847
2019-06-10T12:07:00.000Z,99845
2019-06-10T12:08:29.000Z,99845
2019-06-10T12:10:00.000Z,99844
2019-06-10T12:12:00.000Z,99840
2019-06-10T12:14:00.000Z,99841
2019-06-10T12:15:30.000Z,99838
2019-06-10T12:16:45.000Z,99837
2019-06-10T12:19:00.000Z,99839
2019-06-10T12:21:00.000Z,99838
2019-06-10T12:23:00.000Z,99832
2019-06-10T12:24:30.000Z,99834
2019-06-10T12:25:38.000Z,99829
2019-06-10T12:27:00.000Z,99827
2019-06-10T12:28:30.000Z,99825
2019-06-10T12:30:00.000Z,99826
2019-06-10T12:32:00.000Z,99821
2019-06-10T12:33:30.000Z,99817
2019-06-10T12:34:33.000Z,99822
2019-06-10T12:54:01.000Z,99787
2019-06-10T12:55:18.000Z,99791
2019-06-10T12:57:05.000Z,99794
2019-06-10T12:59:02.000Z,99780
2019-06-10T13:00:16.000Z,99783
2019-06-10T13:02:02.000Z,99781
2019-06-10T13:03:19.000Z,99783
2019-06-10T13:05:05.000Z,99783
2019-06-10T13:06:06.000Z,99785
2019-06-10T13:08:02.000Z,99789
2019-06-10T13:09:05.000Z,99785
2019-06-10T13:11:02.000Z,99782
2019-06-10T13:12:18.000Z,99780
2019-06-10T13:14:05.000Z,99774
2019-06-10T13:15:06.000Z,99782
2019-06-10T13:17:04.000Z,99780
2019-06-10T13:19:05.000Z,99770
2019-06-10T13:20:05.000Z,99770
2019-06-10T13:21:11.000Z,99768
2019-06-10T13:23:02.000Z,99760
2019-06-10T13:24:19.000Z,99762
2019-06-10T13:26:02.000Z,99762
2019-06-10T13:27:04.000Z,99756
2019-06-10T13:28:06.000Z,99754
2019-06-10T13:29:06.000Z,99759
2019-06-10T13:31:02.000Z,99762
2019-06-10T13:32:04.000Z,99760
2019-06-10T13:33:09.000Z,99760
2019-06-10T13:35:02.000Z,99758
2019-06-10T13:36:05.000Z,99757
2019-06-10T13:38:02.000Z,99762
2019-06-10T13:39:06.000Z,99755
2019-06-10T13:40:07.000Z,99754
2019-06-10T13:42:07.000Z,99756
2019-06-10T13:44:03.000Z,99747
2019-06-10T13:46:05.000Z,99748
2019-06-10T13:48:06.000Z,99751
2019-06-10T13:49:07.000Z,99737
2019-06-10T13:51:02.000Z,99748
2019-06-10T13:53:04.000Z,99749
2019-06-10T13:54:04.000Z,99740
2019-06-10T13:55:05.000Z,99738
2019-06-10T13:56:17.000Z,99736
2019-06-10T13:58:02.000Z,99737
2019-06-10T13:59:05.000Z,99731
2019-06-10T14:01:02.000Z,99733
2019-06-10T14:02:05.000Z,99737
2019-06-10T14:03:08.000Z,99729
2019-06-10T14:04:09.000Z,99738
2019-06-10T14:05:10.000Z,99733
2019-06-10T14:07:08.000Z,99741
2019-06-10T14:09:02.000Z,99742
2019-06-10T14:10:07.000Z,99738
2019-06-10T14:12:02.000Z,99735
2019-06-10T14:13:04.000Z,99730
2019-06-10T14:15:02.000Z,99727
2019-06-10T14:16:18.000Z,99721
2019-06-10T14:18:05.000Z,99717
2019-06-10T14:19:06.000Z,99718
2019-06-10T14:21:02.000Z,99715
2019-06-10T14:22:06.000Z,99714
2019-06-10T14:24:02.000Z,99713
2019-06-10T14:25:06.000Z,99712
2019-06-10T14:27:06.000Z,99720
2019-06-10T14:29:02.000Z,99716
2019-06-10T14:30:04.000Z,99717
2019-06-10T14:31:14.000Z,99705
2019-06-10T14:33:02.000Z,99712
2019-06-10T14:34:05.000Z,99711
2019-06-10T14:36:02.000Z,99717
2019-06-10T14:38:04.000Z,99719
2019-06-10T14:40:02.000Z,99705
2019-06-10T14:41:04.000Z,99706
2019-06-10T14:42:05.000Z,99707
2019-06-10T14:44:17.000Z,99706
2019-06-10T14:46:32.000Z,99717
2019-06-10T14:48:02.000Z,99712
2019-06-10T14:49:32.000Z,99715
2019-06-10T14:51:03.000Z,99717
2019-06-10T14:53:02.000Z,99715
2019-06-10T14:54:17.000Z,99712
2019-06-10T14:56:02.000Z,99712
2019-06-10T14:57:17.000Z,99716
2019-06-10T14:59:17.000Z,99717
2019-06-10T15:00:17.000Z,99720
2019-06-10T15:02:17.000Z,99722
2019-06-10T15:04:18.000Z,99719
2019-06-10T15:06:02.000Z,99718
2019-06-10T15:07:18.000Z,99719
2019-06-10T15:09:32.000Z,99719
2019-06-10T15:11:17.000Z,99719
2019-06-10T15:13:32.000Z,99717
2019-06-10T15:15:32.000Z,99715
2019-06-10T15:17:17.000Z,99719
2019-06-10T15:19:16.000Z,99712
2019-06-10T15:21:02.000Z,99706
2019-06-10T15:22:02.000Z,99706
2019-06-10T15:23:17.000Z,99703
2019-06-10T15:25:02.000Z,99706
2019-06-10T15:26:17.000Z,99702
2019-06-10T15:28:02.000Z,99702
2019-06-10T15:29:17.000Z,99699
2019-06-10T15:31:02.000Z,99700
2019-06-10T15:32:02.000Z,99698
2019-06-10T15:33:18.000Z,99696
2019-06-10T15:34:18.000Z,99696
2019-06-10T15:35:18.000Z,99699
2019-06-10T15:36:32.000Z,99698
2019-06-10T15:38:19.000Z,99692
2019-06-10T15:40:03.000Z,99690
2019-06-10T15:41:17.000Z,99681
2019-06-10T15:43:02.000Z,99681
2019-06-10T15:44:17.000Z,99673
2019-06-10T15:46:02.000Z,99678
2019-06-10T15:47:18.000Z,99672
2019-06-10T15:49:17.000Z,99672
2019-06-10T15:50:18.000Z,99669
2019-06-10T15:51:18.000Z,99670
2019-06-10T15:53:18.000Z,99658
2019-06-10T15:55:04.000Z,99661
2019-06-10T15:57:18.000Z,99663
2019-06-10T15:59:02.000Z,99669
2019-06-10T16:01:17.000Z,99668
2019-06-10T16:03:17.000Z,99669
2019-06-10T16:04:17.000Z,99669
2019-06-10T16:06:02.000Z,99667
2019-06-10T16:07:17.000Z,99664
2019-06-10T16:09:03.000Z,99660
2019-06-10T16:10:17.000Z,99664
2019-06-10T16:11:18.000Z,99659
2019-06-10T16:13:18.000Z,99658
2019-06-10T16:15:17.000Z,99653
2019-06-10T16:16:18.000Z,99654
2019-06-10T16:18:18.000Z,99654
2019-06-10T16:20:03.000Z,99658
2019-06-10T16:22:18.000Z,99662
2019-06-10T16:24:17.000Z,99667
2019-06-10T16:26:17.000Z,99669
2019-06-10T16:28:17.000Z,99666
2019-06-10T16:29:17.000Z,99666
2019-06-10T16:31:18.000Z,99665
2019-06-10T16:33:18.000Z,99667
2019-06-10T16:34:19.000Z,99665
2019-06-10T16:36:02.000Z,99671
2019-06-10T16:38:17.000Z,99668
2019-06-10T16:40:02.000Z,99672
2019-06-10T16:41:18.000Z,99681
2019-06-10T16:43:32.000Z,99688
2019-06-10T16:45:17.000Z,99685
2019-06-10T16:47:18.000Z,99692
2019-06-10T16:49:03.000Z,99696
2019-06-10T16:51:18.000Z,99690
2019-06-10T16:53:02.000Z,99682
2019-06-10T16:54:32.000Z,99692
2019-06-10T16:55:32.000Z,99688
2019-06-10T16:57:02.000Z,99692
2019-06-10T16:58:18.000Z,99691
2019-06-10T17:00:02.000Z,99689
2019-06-10T17:01:04.000Z,99688
2019-06-10T17:02:17.000Z,99703
2019-06-10T17:04:17.000Z,99700
2019-06-10T17:06:32.000Z,99701
2019-06-10T17:08:03.000Z,99701
2019-06-10T17:09:17.000Z,99696
2019-06-10T17:11:18.000Z,99684
2019-06-10T17:13:02.000Z,99683
2019-06-10T17:14:17.000Z,99687
2019-06-10T17:15:17.000Z,99687
2019-06-10T17:17:18.000Z,99685
2019-06-10T17:19:17.000Z,99696
2019-06-10T17:21:02.000Z,99703
2019-06-10T17:22:17.000Z,99703
2019-06-10T17:24:02.000Z,99699
2019-06-10T17:25:17.000Z,99696
2019-06-10T17:27:17.000Z,99694
2019-06-10T17:29:02.000Z,99692
2019-06-10T17:31:18.000Z,99688
2019-06-10T17:33:31.000Z,99689
2019-06-10T17:35:16.000Z,99691
2019-06-10T17:37:01.000Z,99688
2019-06-10T17:38:17.000Z,99679
2019-06-10T17:40:17.000Z,99681
2019-06-10T17:42:17.000Z,99680
2019-06-10T17:43:32.000Z,99679
2019-06-10T17:45:32.000Z,99674
2019-06-10T17:47:16.000Z,99676
2019-06-10T17:49:32.000Z,99668
2019-06-10T17:51:17.000Z,99676
2019-06-10T17:52:32.000Z,99675
2019-06-10T17:54:32.000Z,99670
2019-06-10T17:56:17.000Z,99678
2019-06-10T17:57:32.000Z,99668
2019-06-10T17:59:02.000Z,99674
2019-06-10T18:00:10.000Z,99666
2019-06-10T18:02:17.000Z,99669
2019-06-10T18:04:32.000Z,99670
2019-06-10T18:06:17.000Z,99671
2019-06-10T18:07:32.000Z,99673
2019-06-10T18:09:02.000Z,99671
2019-06-10T18:10:17.000Z,99673
2019-06-10T18:12:32.000Z,99670
2019-06-10T18:14:17.000Z,99673
2019-06-10T18:16:17.000Z,99674
2019-06-10T18:17:32.000Z,99679
2019-06-10T18:19:02.000Z,99669
2019-06-10T18:20:17.000Z,99681
2019-06-10T18:22:17.000Z,99682
2019-06-10T18:24:02.000Z,99688
2019-06-10T18:25:17.000Z,99688
2019-06-10T18:27:32.000Z,99685
2019-06-10T18:29:08.000Z,99692
2019-06-10T18:30:10.000Z,99693
2019-06-10T18:32:17.000Z,99683
2019-06-10T18:34:32.000Z,99692
2019-06-10T18:36:16.000Z,99689
2019-06-10T18:37:17.000Z,99687
2019-06-10T18:38:32.000Z,99693
2019-06-10T18:40:17.000Z,99691
2019-06-10T18:42:17.000Z,99694
2019-06-10T18:44:17.000Z,99698
2019-06-10T18:46:02.000Z,99701
2019-06-10T18:47:17.000Z,99702
2019-06-10T18:48:32.000Z,99700
2019-06-10T18:50:32.000Z,99702
2019-06-10T18:51:32.000Z,99697
2019-06-10T18:53:02.000Z,99693
2019-06-10T18:54:32.000Z,99691
2019-06-10T18:56:32.000Z,99681
2019-06-10T18:58:32.000Z,99677
2019-06-10T19:00:10.000Z,99668
2019-06-10T19:02:05.000Z,99665
2019-06-10T19:04:17.000Z,99668
2019-06-10T19:06:32.000Z,99661
2019-06-10T19:08:32.000Z,99664
2019-06-10T19:10:32.000Z,99666
2019-06-10T19:12:17.000Z,99672
2019-06-10T19:13:32.000Z,99674
2019-06-10T19:15:17.000Z,99673
2019-06-10T19:16:32.000Z,99671
2019-06-10T19:18:02.000Z,99668
2019-06-10T19:19:17.000Z,99673
2019-06-10T19:21:02.000Z,99678
2019-06-10T19:22:08.000Z,99680
2019-06-10T19:23:32.000Z,99677
2019-06-10T19:25:02.000Z,99682
2019-06-10T19:26:18.000Z,99680
2019-06-10T19:28:32.000Z,99676
2019-06-10T19:30:32.000Z,99677
2019-06-10T19:32:04.000Z,99684
2019-06-10T19:33:32.000Z,99683
2019-06-10T19:35:02.000Z,99685
2019-06-10T19:36:32.000Z,99687
2019-06-10T19:38:32.000Z,99683
2019-06-10T19:40:32.000Z,99693
2019-06-10T19:42:17.000Z,99696
2019-06-10T19:44:32.000Z,99700
2019-06-10T19:46:02.000Z,99703
2019-06-10T19:47:32.000Z,99698
2019-06-10T19:49:02.000Z,99705
2019-06-10T19:50:18.000Z,99693
2019-06-10T19:52:18.000Z,99696
2019-06-10T19:54:18.000Z,99696
2019-06-10T19:55:32.000Z,99699
2019-06-10T19:57:02.000Z,99698
2019-06-10T19:58:02.000Z,99695
2019-06-10T19:59:32.000Z,99696
2019-06-10T20:01:32.000Z,99703
2019-06-10T20:03:02.000Z,99709
2019-06-10T20:04:17.000Z,99715
2019-06-10T20:05:32.000Z,99713
2019-06-10T20:07:32.000Z,99711
2019-06-10T20:09:17.000Z,99712
2019-06-10T20:10:17.000Z,99717
2019-06-10T20:12:32.000Z,99731
2019-06-10T20:14:32.000Z,99727
2019-06-10T20:16:18.000Z,99723
2019-06-10T20:18:18.000Z,99726
2019-06-10T20:20:17.000Z,99732
2019-06-10T20:22:32.000Z,99722
2019-06-10T20:24:02.000Z,99721
2019-06-10T20:26:32.000Z,99727
2019-06-10T20:28:18.000Z,99730
2019-06-10T20:30:09.000Z,99730
2019-06-10T20:31:32.000Z,99730
2019-06-10T20:32:32.000Z,99728
2019-06-10T20:34:17.000Z,99732
2019-06-10T20:35:17.000Z,99739
2019-06-10T20:37:19.000Z,99744
2019-06-10T20:38:19.000Z,99745
2019-06-10T20:39:32.000Z,99739
2019-06-10T20:41:17.000Z,99735
2019-06-10T20:43:17.000Z,99739
2019-06-10T20:45:02.000Z,99733
2019-06-10T20:46:05.000Z,99735
2019-06-10T20:47:32.000Z,99735
2019-06-10T20:49:02.000Z,99730
2019-06-10T20:50:17.000Z,99733
2019-06-10T20:52:10.000Z,99722
2019-06-10T20:53:13.000Z,99718
2019-06-10T20:55:17.000Z,99731
2019-06-10T20:57:03.000Z,99738